sensor_id;sensor_type;location;lat;lon;timestamp;pressure;altitude;pressure_sealevel;temperature;humidity
57068;BME280;43391;47.448;18.904;2022-07-23T00:00:30;99651.97;;;22.54;56.12
57068;BME280;43391;47.448;18.904;2022-07-23T00:02:56;99644.88;;;22.55;56.25
57068;BME280;43391;47.448;18.904;2022-07-23T00:05:21;99647.13;;;22.50;56.09
57068;BME280;43391;47.448;18.904;2022-07-23T00:07:46;99642.13;;;22.47;55.91
57068;BME280;43391;47.448;18.904;2022-07-23T00:10:12;99642.44;;;22.43;55.79
57068;BME280;43391;47.448;18.904;2022-07-23T00:12:39;99643.78;;;22.48;55.70
57068;BME280;43391;47.448;18.904;2022-07-23T00:15:06;99647.06;;;22.41;55.72
57068;BME280;43391;47.448;18.904;2022-07-23T00:17:32;99642.75;;;22.40;55.60
57068;BME280;43391;47.448;18.904;2022-07-23T00:19:57;99640.13;;;22.40;55.61
57068;BME280;43391;47.448;18.904;2022-07-23T00:22:23;99639.97;;;22.42;55.30
57068;BME280;43391;47.448;18.904;2022-07-23T00:24:54;99639.13;;;22.41;55.14
57068;BME280;43391;47.448;18.904;2022-07-23T00:29:44;99640.16;;;22.49;54.53
57068;BME280;43391;47.448;18.904;2022-07-23T00:32:10;99647.28;;;22.48;54.62
57068;BME280;43391;47.448;18.904;2022-07-23T00:34:38;99644.50;;;22.50;55.01
57068;BME280;43391;47.448;18.904;2022-07-23T00:37:04;99645.78;;;22.46;55.79
57068;BME280;43391;47.448;18.904;2022-07-23T00:39:29;99645.09;;;22.43;55.98
57068;BME280;43391;47.448;18.904;2022-07-23T00:41:54;99650.69;;;22.40;55.88
57068;BME280;43391;47.448;18.904;2022-07-23T00:44:22;99647.81;;;22.34;56.13
57068;BME280;43391;47.448;18.904;2022-07-23T00:46:55;99652.06;;;22.26;56.34
57068;BME280;43391;47.448;18.904;2022-07-23T00:49:24;99647.91;;;22.24;56.44
57068;BME280;43391;47.448;18.904;2022-07-23T00:51:50;99649.44;;;22.26;56.80
57068;BME280;43391;47.448;18.904;2022-07-23T00:54:17;99640.66;;;22.26;56.75
57068;BME280;43391;47.448;18.904;2022-07-23T00:56:46;99642.94;;;22.21;57.09
57068;BME280;43391;47.448;18.904;2022-07-23T00:59:12;99643.41;;;22.16;56.87
57068;BME280;43391;47.448;18.904;2022-07-23T01:01:39;99650.09;;;22.10;56.58
57068;BME280;43391;47.448;18.904;2022-07-23T01:04:04;99645.72;;;22.01;56.89
57068;BME280;43391;47.448;18.904;2022-07-23T01:06:35;99651.31;;;21.98;57.46
57068;BME280;43391;47.448;18.904;2022-07-23T01:09:02;99647.31;;;21.94;57.73
57068;BME280;43391;47.448;18.904;2022-07-23T01:11:28;99649.97;;;21.94;57.48
57068;BME280;43391;47.448;18.904;2022-07-23T01:13:54;99649.66;;;21.97;57.58
57068;BME280;43391;47.448;18.904;2022-07-23T01:16:20;99642.41;;;21.99;57.40
57068;BME280;43391;47.448;18.904;2022-07-23T01:18:48;99643.84;;;21.93;57.73
57068;BME280;43391;47.448;18.904;2022-07-23T01:21:17;99642.41;;;21.99;57.23
57068;BME280;43391;47.448;18.904;2022-07-23T01:23:43;99641.78;;;21.87;57.63
57068;BME280;43391;47.448;18.904;2022-07-23T01:26:09;99639.09;;;21.79;58.21
57068;BME280;43391;47.448;18.904;2022-07-23T01:28:34;99644.81;;;21.74;58.40
57068;BME280;43391;47.448;18.904;2022-07-23T01:31:09;99642.47;;;21.71;58.66
57068;BME280;43391;47.448;18.904;2022-07-23T01:33:35;99644.72;;;21.66;58.97
57068;BME280;43391;47.448;18.904;2022-07-23T01:36:00;99647.25;;;21.57;58.91
57068;BME280;43391;47.448;18.904;2022-07-23T01:38:25;99647.84;;;21.51;59.37
57068;BME280;43391;47.448;18.904;2022-07-23T01:40:53;99646.59;;;21.45;59.63
57068;BME280;43391;47.448;18.904;2022-07-23T01:43:19;99641.91;;;21.39;59.53
57068;BME280;43391;47.448;18.904;2022-07-23T01:45:44;99653.16;;;21.41;59.37
57068;BME280;43391;47.448;18.904;2022-07-23T01:48:10;99653.47;;;21.38;59.21
57068;BME280;43391;47.448;18.904;2022-07-23T01:50:35;99644.56;;;21.39;59.33
57068;BME280;43391;47.448;18.904;2022-07-23T01:53:00;99643.25;;;21.25;59.65
57068;BME280;43391;47.448;18.904;2022-07-23T01:55:26;99646.06;;;21.14;60.04
57068;BME280;43391;47.448;18.904;2022-07-23T01:57:51;99645.81;;;21.07;60.09
57068;BME280;43391;47.448;18.904;2022-07-23T02:00:17;99640.13;;;21.02;60.24
57068;BME280;43391;47.448;18.904;2022-07-23T02:02:42;99639.47;;;21.00;60.30
57068;BME280;43391;47.448;18.904;2022-07-23T02:05:08;99641.97;;;20.91;60.53
57068;BME280;43391;47.448;18.904;2022-07-23T02:07:33;99636.56;;;20.93;60.77
57068;BME280;43391;47.448;18.904;2022-07-23T02:09:59;99638.09;;;20.95;60.76
57068;BME280;43391;47.448;18.904;2022-07-23T02:12:24;99643.50;;;20.94;61.03
57068;BME280;43391;47.448;18.904;2022-07-23T02:14:55;99649.75;;;20.93;60.97
57068;BME280;43391;47.448;18.904;2022-07-23T02:17:20;99642.97;;;20.90;60.82
57068;BME280;43391;47.448;18.904;2022-07-23T02:19:45;99647.13;;;20.93;61.00
57068;BME280;43391;47.448;18.904;2022-07-23T02:22:11;99642.81;;;20.92;61.00
57068;BME280;43391;47.448;18.904;2022-07-23T02:24:37;99643.09;;;20.89;61.26
57068;BME280;43391;47.448;18.904;2022-07-23T02:27:02;99640.88;;;20.84;61.44
57068;BME280;43391;47.448;18.904;2022-07-23T02:29:27;99645.44;;;20.82;61.44
57068;BME280;43391;47.448;18.904;2022-07-23T02:31:53;99649.19;;;20.79;61.10
57068;BME280;43391;47.448;18.904;2022-07-23T02:34:34;99643.38;;;20.76;61.29
57068;BME280;43391;47.448;18.904;2022-07-23T02:36:59;99647.28;;;20.71;61.03
57068;BME280;43391;47.448;18.904;2022-07-23T02:39:25;99649.38;;;20.68;60.67
57068;BME280;43391;47.448;18.904;2022-07-23T02:41:50;99645.06;;;20.67;60.97
57068;BME280;43391;47.448;18.904;2022-07-23T02:44:25;99650.34;;;20.67;60.96
57068;BME280;43391;47.448;18.904;2022-07-23T02:46:51;99645.91;;;20.57;60.73
57068;BME280;43391;47.448;18.904;2022-07-23T02:49:16;99646.91;;;20.56;60.84
57068;BME280;43391;47.448;18.904;2022-07-23T02:51:42;99647.03;;;20.55;61.01
57068;BME280;43391;47.448;18.904;2022-07-23T02:54:08;99644.53;;;20.53;61.23
57068;BME280;43391;47.448;18.904;2022-07-23T02:56:36;99649.13;;;20.51;61.13
57068;BME280;43391;47.448;18.904;2022-07-23T02:59:02;99637.19;;;20.47;61.29
57068;BME280;43391;47.448;18.904;2022-07-23T03:01:27;99639.81;;;20.47;61.14
57068;BME280;43391;47.448;18.904;2022-07-23T03:03:52;99642.75;;;20.44;61.15
57068;BME280;43391;47.448;18.904;2022-07-23T03:06:23;99637.75;;;20.41;61.12
57068;BME280;43391;47.448;18.904;2022-07-23T03:08:51;99635.13;;;20.41;61.13
57068;BME280;43391;47.448;18.904;2022-07-23T03:11:17;99637.63;;;20.42;60.87
57068;BME280;43391;47.448;18.904;2022-07-23T03:13:42;99632.50;;;20.41;60.96
57068;BME280;43391;47.448;18.904;2022-07-23T03:16:08;99633.16;;;20.43;60.97
57068;BME280;43391;47.448;18.904;2022-07-23T03:18:34;99636.09;;;20.40;61.11
57068;BME280;43391;47.448;18.904;2022-07-23T03:20:59;99638.03;;;20.38;61.34
57068;BME280;43391;47.448;18.904;2022-07-23T03:23:25;99634.56;;;20.37;61.42
57068;BME280;43391;47.448;18.904;2022-07-23T03:25:50;99636.38;;;20.37;61.21
57068;BME280;43391;47.448;18.904;2022-07-23T03:28:20;99635.38;;;20.38;61.10
57068;BME280;43391;47.448;18.904;2022-07-23T03:30:54;99635.25;;;20.39;61.07
57068;BME280;43391;47.448;18.904;2022-07-23T03:33:20;99634.00;;;20.43;60.96
57068;BME280;43391;47.448;18.904;2022-07-23T03:35:47;99642.19;;;20.50;60.18
57068;BME280;43391;47.448;18.904;2022-07-23T03:38:13;99638.44;;;20.53;60.07
57068;BME280;43391;47.448;18.904;2022-07-23T03:40:39;99641.75;;;20.55;59.77
57068;BME280;43391;47.448;18.904;2022-07-23T03:43:04;99646.59;;;20.60;59.79
57068;BME280;43391;47.448;18.904;2022-07-23T03:45:31;99641.91;;;20.63;60.51
57068;BME280;43391;47.448;18.904;2022-07-23T03:47:57;99650.47;;;20.65;60.94
57068;BME280;43391;47.448;18.904;2022-07-23T03:50:28;99644.38;;;20.65;60.89
57068;BME280;43391;47.448;18.904;2022-07-23T03:52:54;99651.03;;;20.69;60.77
57068;BME280;43391;47.448;18.904;2022-07-23T03:55:19;99645.47;;;20.72;61.06
57068;BME280;43391;47.448;18.904;2022-07-23T03:57:45;99651.03;;;20.79;60.64
57068;BME280;43391;47.448;18.904;2022-07-23T04:00:11;99653.34;;;20.82;61.04
57068;BME280;43391;47.448;18.904;2022-07-23T04:02:37;99651.28;;;20.86;60.67
57068;BME280;43391;47.448;18.904;2022-07-23T04:05:04;99649.91;;;20.91;60.98
57068;BME280;43391;47.448;18.904;2022-07-23T04:07:30;99651.81;;;20.99;60.67
57068;BME280;43391;47.448;18.904;2022-07-23T04:09:56;99648.47;;;21.07;60.79
57068;BME280;43391;47.448;18.904;2022-07-23T04:12:21;99664.56;;;21.14;61.51
57068;BME280;43391;47.448;18.904;2022-07-23T04:14:54;99669.69;;;21.15;60.79
57068;BME280;43391;47.448;18.904;2022-07-23T04:17:19;99658.81;;;21.18;60.59
57068;BME280;43391;47.448;18.904;2022-07-23T04:19:45;99659.22;;;21.23;60.53
57068;BME280;43391;47.448;18.904;2022-07-23T04:22:11;99656.72;;;21.22;60.94
57068;BME280;43391;47.448;18.904;2022-07-23T04:24:37;99660.72;;;21.26;60.80
57068;BME280;43391;47.448;18.904;2022-07-23T04:27:03;99661.72;;;21.25;61.67
57068;BME280;43391;47.448;18.904;2022-07-23T04:29:28;99662.84;;;21.22;62.00
57068;BME280;43391;47.448;18.904;2022-07-23T04:31:54;99662.69;;;21.24;61.74
57068;BME280;43391;47.448;18.904;2022-07-23T04:34:27;99664.91;;;21.29;61.38
57068;BME280;43391;47.448;18.904;2022-07-23T04:36:53;99666.28;;;21.33;61.50
57068;BME280;43391;47.448;18.904;2022-07-23T04:39:18;99664.31;;;21.35;61.74
57068;BME280;43391;47.448;18.904;2022-07-23T04:41:44;99670.13;;;21.38;61.94
57068;BME280;43391;47.448;18.904;2022-07-23T04:44:09;99668.19;;;21.41;62.54
57068;BME280;43391;47.448;18.904;2022-07-23T04:46:35;99671.50;;;21.43;62.25
57068;BME280;43391;47.448;18.904;2022-07-23T04:49:01;99666.75;;;21.46;62.78
57068;BME280;43391;47.448;18.904;2022-07-23T04:51:26;99675.22;;;21.50;62.83
57068;BME280;43391;47.448;18.904;2022-07-23T04:53:51;99659.59;;;21.57;62.76
57068;BME280;43391;47.448;18.904;2022-07-23T04:56:17;99662.88;;;21.69;61.73
57068;BME280;43391;47.448;18.904;2022-07-23T04:58:42;99665.19;;;21.82;60.69
57068;BME280;43391;47.448;18.904;2022-07-23T05:01:08;99666.81;;;21.93;60.24
57068;BME280;43391;47.448;18.904;2022-07-23T05:03:33;99663.78;;;22.06;60.14
57068;BME280;43391;47.448;18.904;2022-07-23T05:05:58;99660.59;;;22.20;59.34
57068;BME280;43391;47.448;18.904;2022-07-23T05:08:27;99659.25;;;22.34;58.71
57068;BME280;43391;47.448;18.904;2022-07-23T05:10:52;99655.22;;;22.48;58.33
57068;BME280;43391;47.448;18.904;2022-07-23T05:13:18;99664.13;;;22.65;57.73
57068;BME280;43391;47.448;18.904;2022-07-23T05:15:44;99662.41;;;22.82;56.35
57068;BME280;43391;47.448;18.904;2022-07-23T05:18:13;99656.38;;;22.99;55.45
57068;BME280;43391;47.448;18.904;2022-07-23T05:20:39;99660.75;;;23.08;54.74
57068;BME280;43391;47.448;18.904;2022-07-23T05:23:04;99658.03;;;23.26;54.70
57068;BME280;43391;47.448;18.904;2022-07-23T05:25:30;99669.34;;;23.45;54.21
57068;BME280;43391;47.448;18.904;2022-07-23T05:27:55;99663.09;;;23.54;53.69
57068;BME280;43391;47.448;18.904;2022-07-23T05:30:20;99665.94;;;23.69;52.75
57068;BME280;43391;47.448;18.904;2022-07-23T05:32:46;99668.13;;;23.82;52.26
57068;BME280;43391;47.448;18.904;2022-07-23T05:35:12;99671.81;;;23.89;52.31
57068;BME280;43391;47.448;18.904;2022-07-23T05:37:37;99666.84;;;24.03;53.57
57068;BME280;43391;47.448;18.904;2022-07-23T05:40:08;99664.06;;;24.21;54.55
57068;BME280;43391;47.448;18.904;2022-07-23T05:42:35;99662.56;;;24.35;54.85
57068;BME280;43391;47.448;18.904;2022-07-23T05:45:01;99664.25;;;24.45;53.88
57068;BME280;43391;47.448;18.904;2022-07-23T05:47:26;99668.72;;;24.61;53.73
57068;BME280;43391;47.448;18.904;2022-07-23T05:49:51;99675.66;;;24.78;54.34
57068;BME280;43391;47.448;18.904;2022-07-23T05:52:19;99670.69;;;24.92;54.20
57068;BME280;43391;47.448;18.904;2022-07-23T05:54:48;99668.16;;;24.99;53.91
57068;BME280;43391;47.448;18.904;2022-07-23T05:57:13;99669.94;;;25.15;54.99
57068;BME280;43391;47.448;18.904;2022-07-23T05:59:38;99674.72;;;25.28;54.51
57068;BME280;43391;47.448;18.904;2022-07-23T06:02:04;99665.34;;;25.40;54.08
57068;BME280;43391;47.448;18.904;2022-07-23T06:04:29;99663.31;;;25.59;53.52
57068;BME280;43391;47.448;18.904;2022-07-23T06:06:55;99662.66;;;25.80;51.83
57068;BME280;43391;47.448;18.904;2022-07-23T06:09:20;99654.81;;;26.10;51.77
57068;BME280;43391;47.448;18.904;2022-07-23T06:11:45;99652.97;;;26.58;49.22
57068;BME280;43391;47.448;18.904;2022-07-23T06:14:11;99653.81;;;27.03;47.23
57068;BME280;43391;47.448;18.904;2022-07-23T06:16:36;99657.09;;;27.36;47.17
57068;BME280;43391;47.448;18.904;2022-07-23T06:19:02;99647.50;;;27.56;46.20
57068;BME280;43391;47.448;18.904;2022-07-23T06:21:27;99646.53;;;28.01;44.75
57068;BME280;43391;47.448;18.904;2022-07-23T06:23:52;99650.41;;;28.42;43.14
57068;BME280;43391;47.448;18.904;2022-07-23T06:26:35;99647.84;;;28.62;42.07
57068;BME280;43391;47.448;18.904;2022-07-23T06:29:00;99657.47;;;28.85;41.60
57068;BME280;43391;47.448;18.904;2022-07-23T06:31:26;99660.25;;;29.06;41.07
57068;BME280;43391;47.448;18.904;2022-07-23T06:33:51;99645.59;;;29.37;40.41
57068;BME280;43391;47.448;18.904;2022-07-23T06:36:26;99656.41;;;29.64;39.49
57068;BME280;43391;47.448;18.904;2022-07-23T06:38:51;99654.78;;;29.83;38.57
57068;BME280;43391;47.448;18.904;2022-07-23T06:41:16;99648.63;;;29.96;38.58
57068;BME280;43391;47.448;18.904;2022-07-23T06:43:42;99651.97;;;30.12;38.48
57068;BME280;43391;47.448;18.904;2022-07-23T06:46:07;99651.78;;;30.27;38.35
57068;BME280;43391;47.448;18.904;2022-07-23T06:48:36;99654.22;;;30.35;38.12
57068;BME280;43391;47.448;18.904;2022-07-23T06:51:03;99651.75;;;30.40;37.93
57068;BME280;43391;47.448;18.904;2022-07-23T06:53:28;99654.22;;;30.48;38.82
57068;BME280;43391;47.448;18.904;2022-07-23T06:55:54;99651.34;;;30.43;39.47
57068;BME280;43391;47.448;18.904;2022-07-23T06:58:28;99647.03;;;30.35;40.22
57068;BME280;43391;47.448;18.904;2022-07-23T07:00:53;99648.25;;;30.46;38.91
57068;BME280;43391;47.448;18.904;2022-07-23T07:03:19;99644.50;;;30.68;37.27
57068;BME280;43391;47.448;18.904;2022-07-23T07:05:45;99634.59;;;30.95;37.97
57068;BME280;43391;47.448;18.904;2022-07-23T07:08:11;99640.69;;;31.16;37.24
57068;BME280;43391;47.448;18.904;2022-07-23T07:10:37;99634.19;;;31.44;35.91
57068;BME280;43391;47.448;18.904;2022-07-23T07:13:02;99631.19;;;31.59;36.91
57068;BME280;43391;47.448;18.904;2022-07-23T07:15:28;99630.34;;;31.65;36.98
57068;BME280;43391;47.448;18.904;2022-07-23T07:17:53;99639.53;;;31.83;34.18
57068;BME280;43391;47.448;18.904;2022-07-23T07:20:37;99635.50;;;31.99;34.65
57068;BME280;43391;47.448;18.904;2022-07-23T07:23:02;99629.34;;;32.17;34.62
57068;BME280;43391;47.448;18.904;2022-07-23T07:25:27;99624.03;;;32.36;33.66
57068;BME280;43391;47.448;18.904;2022-07-23T07:27:53;99631.91;;;32.56;33.68
57068;BME280;43391;47.448;18.904;2022-07-23T07:30:18;99631.97;;;32.50;34.42
57068;BME280;43391;47.448;18.904;2022-07-23T07:32:43;99628.88;;;32.53;34.96
57068;BME280;43391;47.448;18.904;2022-07-23T07:35:09;99635.38;;;32.64;33.94
57068;BME280;43391;47.448;18.904;2022-07-23T07:37:35;99627.53;;;32.81;32.69
57068;BME280;43391;47.448;18.904;2022-07-23T07:40:00;99623.13;;;32.86;33.29
57068;BME280;43391;47.448;18.904;2022-07-23T07:42:26;99627.59;;;32.93;33.67
57068;BME280;43391;47.448;18.904;2022-07-23T07:44:51;99622.19;;;32.99;32.08
57068;BME280;43391;47.448;18.904;2022-07-23T07:47:17;99631.88;;;33.19;32.47
57068;BME280;43391;47.448;18.904;2022-07-23T07:49:42;99631.19;;;33.55;32.00
57068;BME280;43391;47.448;18.904;2022-07-23T07:52:09;99627.66;;;33.85;29.93
57068;BME280;43391;47.448;18.904;2022-07-23T07:54:34;99625.19;;;33.95;30.65
57068;BME280;43391;47.448;18.904;2022-07-23T07:57:00;99621.44;;;33.96;29.86
57068;BME280;43391;47.448;18.904;2022-07-23T07:59:25;99626.31;;;34.06;28.96
57068;BME280;43391;47.448;18.904;2022-07-23T08:01:51;99629.41;;;33.91;30.61
57068;BME280;43391;47.448;18.904;2022-07-23T08:04:17;99627.78;;;33.90;29.69
57068;BME280;43391;47.448;18.904;2022-07-23T08:06:42;99626.16;;;34.13;28.30
57068;BME280;43391;47.448;18.904;2022-07-23T08:09:08;99626.66;;;34.45;28.45
57068;BME280;43391;47.448;18.904;2022-07-23T08:11:33;99627.78;;;34.74;27.88
57068;BME280;43391;47.448;18.904;2022-07-23T08:13:59;99629.31;;;34.81;27.63
57068;BME280;43391;47.448;18.904;2022-07-23T08:16:28;99631.31;;;34.86;28.34
57068;BME280;43391;47.448;18.904;2022-07-23T08:18:59;99625.69;;;34.88;28.22
57068;BME280;43391;47.448;18.904;2022-07-23T08:21:24;99623.69;;;34.83;28.64
57068;BME280;43391;47.448;18.904;2022-07-23T08:23:50;99627.22;;;34.83;28.56
57068;BME280;43391;47.448;18.904;2022-07-23T08:26:15;99631.91;;;34.76;27.79
57068;BME280;43391;47.448;18.904;2022-07-23T08:28:41;99626.22;;;35.02;26.77
57068;BME280;43391;47.448;18.904;2022-07-23T08:31:06;99626.22;;;35.02;25.88
57068;BME280;43391;47.448;18.904;2022-07-23T08:33:32;99623.25;;;35.03;26.57
57068;BME280;43391;47.448;18.904;2022-07-23T08:36:16;99628.56;;;34.98;26.81
57068;BME280;43391;47.448;18.904;2022-07-23T08:38:41;99630.78;;;35.13;26.58
57068;BME280;43391;47.448;18.904;2022-07-23T08:41:08;99632.13;;;35.28;26.53
57068;BME280;43391;47.448;18.904;2022-07-23T08:43:34;99627.50;;;35.40;26.46
57068;BME280;43391;47.448;18.904;2022-07-23T08:46:02;99622.56;;;35.37;26.82
57068;BME280;43391;47.448;18.904;2022-07-23T08:48:34;99625.63;;;35.11;26.80
57068;BME280;43391;47.448;18.904;2022-07-23T08:51:03;99622.56;;;35.20;26.66
57068;BME280;43391;47.448;18.904;2022-07-23T08:53:30;99621.63;;;35.43;26.28
57068;BME280;43391;47.448;18.904;2022-07-23T08:55:57;99625.16;;;35.61;25.03
57068;BME280;43391;47.448;18.904;2022-07-23T08:58:25;99629.53;;;35.62;25.69
57068;BME280;43391;47.448;18.904;2022-07-23T09:00:51;99613.50;;;35.72;26.02
57068;BME280;43391;47.448;18.904;2022-07-23T09:03:22;99616.75;;;35.91;26.79
57068;BME280;43391;47.448;18.904;2022-07-23T09:05:50;99619.38;;;36.03;25.48
57068;BME280;43391;47.448;18.904;2022-07-23T09:08:24;99615.22;;;35.96;24.97
57068;BME280;43391;47.448;18.904;2022-07-23T09:10:55;99610.81;;;35.89;26.14
57068;BME280;43391;47.448;18.904;2022-07-23T09:15:55;99620.03;;;36.28;25.60
57068;BME280;43391;47.448;18.904;2022-07-23T09:18:39;99622.31;;;36.36;25.71
57068;BME280;43391;47.448;18.904;2022-07-23T09:26:27;99622.25;;;35.97;25.70
57068;BME280;43391;47.448;18.904;2022-07-23T09:28:59;99613.66;;;36.00;26.05
57068;BME280;43391;47.448;18.904;2022-07-23T09:31:31;99609.81;;;35.96;26.06
57068;BME280;43391;47.448;18.904;2022-07-23T09:34:12;99610.41;;;35.81;25.44
57068;BME280;43391;47.448;18.904;2022-07-23T09:36:38;99608.25;;;35.83;24.81
57068;BME280;43391;47.448;18.904;2022-07-23T09:39:05;99610.06;;;35.94;25.34
57068;BME280;43391;47.448;18.904;2022-07-23T09:41:36;99614.38;;;35.95;24.97
57068;BME280;43391;47.448;18.904;2022-07-23T09:44:12;99606.28;;;35.95;25.49
57068;BME280;43391;47.448;18.904;2022-07-23T09:46:39;99614.06;;;36.09;26.28
57068;BME280;43391;47.448;18.904;2022-07-23T09:49:20;99606.63;;;36.16;25.83
57068;BME280;43391;47.448;18.904;2022-07-23T09:51:49;99600.06;;;36.12;24.80
57068;BME280;43391;47.448;18.904;2022-07-23T09:54:36;99604.44;;;36.13;25.99
57068;BME280;43391;47.448;18.904;2022-07-23T09:57:11;99600.25;;;36.22;25.44
57068;BME280;43391;47.448;18.904;2022-07-23T09:59:42;99598.03;;;36.19;25.00
57068;BME280;43391;47.448;18.904;2022-07-23T10:02:11;99601.81;;;36.18;25.09
57068;BME280;43391;47.448;18.904;2022-07-23T10:04:38;99587.88;;;36.26;25.38
57068;BME280;43391;47.448;18.904;2022-07-23T10:07:06;99591.63;;;36.25;24.39
57068;BME280;43391;47.448;18.904;2022-07-23T10:09:39;99582.47;;;36.26;23.94
57068;BME280;43391;47.448;18.904;2022-07-23T10:12:13;99586.53;;;36.29;23.19
57068;BME280;43391;47.448;18.904;2022-07-23T10:14:44;99585.09;;;36.21;23.99
57068;BME280;43391;47.448;18.904;2022-07-23T10:17:10;99584.91;;;36.11;23.59
57068;BME280;43391;47.448;18.904;2022-07-23T10:19:36;99574.88;;;36.06;24.91
57068;BME280;43391;47.448;18.904;2022-07-23T10:22:04;99582.41;;;36.04;23.57
57068;BME280;43391;47.448;18.904;2022-07-23T10:24:53;99579.72;;;36.04;23.94
57068;BME280;43391;47.448;18.904;2022-07-23T10:30:09;99585.84;;;35.99;22.76
57068;BME280;43391;47.448;18.904;2022-07-23T10:35:26;99573.91;;;36.12;23.84
57068;BME280;43391;47.448;18.904;2022-07-23T10:41:06;99557.78;;;36.40;23.30
57068;BME280;43391;47.448;18.904;2022-07-23T10:43:31;99564.72;;;36.53;24.54
57068;BME280;43391;47.448;18.904;2022-07-23T10:46:25;99566.00;;;36.67;23.92
57068;BME280;43391;47.448;18.904;2022-07-23T10:49:24;99555.63;;;36.81;24.08
57068;BME280;43391;47.448;18.904;2022-07-23T10:52:22;99555.53;;;36.99;24.12
57068;BME280;43391;47.448;18.904;2022-07-23T10:57:18;99554.34;;;36.89;23.65
57068;BME280;43391;47.448;18.904;2022-07-23T11:02:31;99552.31;;;37.29;23.40
57068;BME280;43391;47.448;18.904;2022-07-23T11:05:04;99538.38;;;37.48;22.60
57068;BME280;43391;47.448;18.904;2022-07-23T11:07:30;99535.88;;;37.36;22.50
57068;BME280;43391;47.448;18.904;2022-07-23T11:09:55;99529.47;;;37.47;23.62
57068;BME280;43391;47.448;18.904;2022-07-23T11:17:24;99522.56;;;37.62;21.54
57068;BME280;43391;47.448;18.904;2022-07-23T11:45:54;99500.31;;;37.22;22.91
57068;BME280;43391;47.448;18.904;2022-07-23T11:48:28;99490.13;;;37.34;22.27
57068;BME280;43391;47.448;18.904;2022-07-23T11:50:55;99493.69;;;37.40;22.24
57068;BME280;43391;47.448;18.904;2022-07-23T12:12:25;99458.16;;;37.64;22.35
57068;BME280;43391;47.448;18.904;2022-07-23T12:14:56;99461.16;;;37.68;20.99
57068;BME280;43391;47.448;18.904;2022-07-23T12:17:30;99467.13;;;37.70;20.99
57068;BME280;43391;47.448;18.904;2022-07-23T12:19:57;99468.69;;;37.60;21.00
57068;BME280;43391;47.448;18.904;2022-07-23T12:22:33;99462.56;;;37.81;21.59
57068;BME280;43391;47.448;18.904;2022-07-23T12:25:01;99452.38;;;37.93;21.03
57068;BME280;43391;47.448;18.904;2022-07-23T12:27:28;99453.78;;;38.11;21.04
57068;BME280;43391;47.448;18.904;2022-07-23T12:29:53;99443.06;;;38.53;20.50
57068;BME280;43391;47.448;18.904;2022-07-23T12:32:22;99442.31;;;38.58;20.13
57068;BME280;43391;47.448;18.904;2022-07-23T12:35:04;99436.94;;;38.84;20.39
57068;BME280;43391;47.448;18.904;2022-07-23T12:37:32;99443.44;;;39.09;20.29
57068;BME280;43391;47.448;18.904;2022-07-23T12:39:58;99437.50;;;39.12;20.42
57068;BME280;43391;47.448;18.904;2022-07-23T12:42:43;99428.25;;;39.13;21.17
57068;BME280;43391;47.448;18.904;2022-07-23T12:45:10;99429.03;;;38.56;21.10
57068;BME280;43391;47.448;18.904;2022-07-23T12:53:25;99421.44;;;38.89;21.27
57068;BME280;43391;47.448;18.904;2022-07-23T12:56:18;99424.72;;;38.86;20.76
57068;BME280;43391;47.448;18.904;2022-07-23T12:58:49;99416.28;;;38.77;21.30
57068;BME280;43391;47.448;18.904;2022-07-23T13:01:24;99417.31;;;38.50;21.35
57068;BME280;43391;47.448;18.904;2022-07-23T13:04:06;99421.03;;;38.18;21.59
57068;BME280;43391;47.448;18.904;2022-07-23T13:06:38;99416.75;;;37.69;20.69
57068;BME280;43391;47.448;18.904;2022-07-23T13:09:07;99408.97;;;37.34;21.23
57068;BME280;43391;47.448;18.904;2022-07-23T13:11:32;99405.22;;;37.08;22.03
57068;BME280;43391;47.448;18.904;2022-07-23T13:13:59;99403.75;;;37.22;21.57
57068;BME280;43391;47.448;18.904;2022-07-23T13:16:32;99398.81;;;37.57;20.98
57068;BME280;43391;47.448;18.904;2022-07-23T13:19:01;99391.44;;;37.91;20.41
57068;BME280;43391;47.448;18.904;2022-07-23T13:21:28;99390.72;;;38.16;20.01
57068;BME280;43391;47.448;18.904;2022-07-23T13:23:54;99384.00;;;38.39;19.02
57068;BME280;43391;47.448;18.904;2022-07-23T13:26:20;99376.44;;;38.57;20.89
57068;BME280;43391;47.448;18.904;2022-07-23T13:28:55;99382.44;;;38.70;18.81
57068;BME280;43391;47.448;18.904;2022-07-23T13:31:21;99375.34;;;38.63;18.97
57068;BME280;43391;47.448;18.904;2022-07-23T13:33:46;99374.28;;;38.59;18.20
57068;BME280;43391;47.448;18.904;2022-07-23T13:36:12;99374.50;;;38.32;18.62
57068;BME280;43391;47.448;18.904;2022-07-23T13:38:38;99369.75;;;38.01;19.15
57068;BME280;43391;47.448;18.904;2022-07-23T13:41:04;99370.31;;;37.98;18.97
57068;BME280;43391;47.448;18.904;2022-07-23T13:43:30;99355.19;;;38.07;19.01
57068;BME280;43391;47.448;18.904;2022-07-23T13:45:56;99359.25;;;38.05;19.62
57068;BME280;43391;47.448;18.904;2022-07-23T13:48:22;99353.25;;;37.97;20.46
57068;BME280;43391;47.448;18.904;2022-07-23T13:50:48;99362.75;;;38.05;20.43
57068;BME280;43391;47.448;18.904;2022-07-23T13:53:17;99371.53;;;38.54;19.20
57068;BME280;43391;47.448;18.904;2022-07-23T13:55:44;99361.25;;;38.61;18.05
57068;BME280;43391;47.448;18.904;2022-07-23T13:58:10;99362.84;;;38.52;18.00
57068;BME280;43391;47.448;18.904;2022-07-23T14:00:39;99362.56;;;38.38;17.90
57068;BME280;43391;47.448;18.904;2022-07-23T14:03:05;99360.66;;;38.18;18.45
57068;BME280;43391;47.448;18.904;2022-07-23T14:05:32;99356.59;;;38.20;18.45
57068;BME280;43391;47.448;18.904;2022-07-23T14:07:57;99364.97;;;38.13;18.52
57068;BME280;43391;47.448;18.904;2022-07-23T14:10:24;99355.78;;;38.25;19.41
57068;BME280;43391;47.448;18.904;2022-07-23T14:12:51;99354.16;;;38.24;18.23